sensor_id;sensor_type;location;lat;lon;timestamp;temperature;humidity
3190;DHT22;1606;51.946;10.558;2022-12-18T00:01:24;-3.50;96.20
3190;DHT22;1606;51.946;10.558;2022-12-18T00:03:54;-3.50;95.90
3190;DHT22;1606;51.946;10.558;2022-12-18T00:06:27;-3.40;96.00
3190;DHT22;1606;51.946;10.558;2022-12-18T00:08:56;-3.40;95.80
3190;DHT22;1606;51.946;10.558;2022-12-18T00:11:28;-3.40;95.60
3190;DHT22;1606;51.946;10.558;2022-12-18T00:13:58;-3.60;95.60
3190;DHT22;1606;51.946;10.558;2022-12-18T00:16:28;-3.50;96.00
3190;DHT22;1606;51.946;10.558;2022-12-18T00:18:57;-3.40;95.80
3190;DHT22;1606;51.946;10.558;2022-12-18T00:21:26;-3.30;95.40
3190;DHT22;1606;51.946;10.558;2022-12-18T00:23:59;-3.60;94.90
3190;DHT22;1606;51.946;10.558;2022-12-18T00:26:38;-3.70;95.10
3190;DHT22;1606;51.946;10.558;2022-12-18T00:29:09;-3.80;95.30
3190;DHT22;1606;51.946;10.558;2022-12-18T00:31:40;-3.80;95.50
3190;DHT22;1606;51.946;10.558;2022-12-18T00:34:13;-3.70;95.60
3190;DHT22;1606;51.946;10.558;2022-12-18T00:36:41;-3.70;95.70
3190;DHT22;1606;51.946;10.558;2022-12-18T00:39:10;-3.70;95.70
3190;DHT22;1606;51.946;10.558;2022-12-18T00:41:38;-3.70;95.40
3190;DHT22;1606;51.946;10.558;2022-12-18T00:44:24;-3.70;95.50
3190;DHT22;1606;51.946;10.558;2022-12-18T00:46:53;-3.70;95.40
3190;DHT22;1606;51.946;10.558;2022-12-18T00:49:21;-3.70;95.30
3190;DHT22;1606;51.946;10.558;2022-12-18T00:51:49;-3.90;95.30
3190;DHT22;1606;51.946;10.558;2022-12-18T00:54:17;-4.00;95.50
3190;DHT22;1606;51.946;10.558;2022-12-18T00:56:45;-4.00;95.50
3190;DHT22;1606;51.946;10.558;2022-12-18T00:59:15;-3.90;95.90
3190;DHT22;1606;51.946;10.558;2022-12-18T01:01:44;-3.90;95.50
3190;DHT22;1606;51.946;10.558;2022-12-18T01:04:14;-3.90;95.70
3190;DHT22;1606;51.946;10.558;2022-12-18T01:06:42;-4.00;95.60
3190;DHT22;1606;51.946;10.558;2022-12-18T01:09:10;-4.00;95.80
3190;DHT22;1606;51.946;10.558;2022-12-18T01:11:38;-3.90;95.90
3190;DHT22;1606;51.946;10.558;2022-12-18T01:14:06;-3.80;95.90
3190;DHT22;1606;51.946;10.558;2022-12-18T01:16:33;-3.90;95.30
3190;DHT22;1606;51.946;10.558;2022-12-18T01:19:01;-3.90;95.50
3190;DHT22;1606;51.946;10.558;2022-12-18T01:21:31;-3.70;95.10
3190;DHT22;1606;51.946;10.558;2022-12-18T01:23:58;-3.70;95.00
3190;DHT22;1606;51.946;10.558;2022-12-18T01:26:27;-3.70;95.00
3190;DHT22;1606;51.946;10.558;2022-12-18T01:28:56;-4.00;94.50
3190;DHT22;1606;51.946;10.558;2022-12-18T01:31:27;-4.10;94.90
3190;DHT22;1606;51.946;10.558;2022-12-18T01:34:09;-4.20;95.20
3190;DHT22;1606;51.946;10.558;2022-12-18T01:36:39;-4.20;95.50
3190;DHT22;1606;51.946;10.558;2022-12-18T01:39:10;-4.20;95.70
3190;DHT22;1606;51.946;10.558;2022-12-18T01:41:38;-4.10;95.60
3190;DHT22;1606;51.946;10.558;2022-12-18T01:47:33;-4.00;95.20
3190;DHT22;1606;51.946;10.558;2022-12-18T01:50:05;-4.10;95.20
3190;DHT22;1606;51.946;10.558;2022-12-18T01:52:37;-4.10;95.10
3190;DHT22;1606;51.946;10.558;2022-12-18T01:55:07;-4.00;95.00
3190;DHT22;1606;51.946;10.558;2022-12-18T01:57:36;-4.30;94.80
3190;DHT22;1606;51.946;10.558;2022-12-18T02:00:07;-4.40;95.10
3190;DHT22;1606;51.946;10.558;2022-12-18T02:02:36;-4.30;95.40
3190;DHT22;1606;51.946;10.558;2022-12-18T02:05:04;-4.50;95.30
3190;DHT22;1606;51.946;10.558;2022-12-18T02:07:42;-4.40;95.50
3190;DHT22;1606;51.946;10.558;2022-12-18T02:10:17;-4.20;95.50
3190;DHT22;1606;51.946;10.558;2022-12-18T02:12:50;-4.20;95.30
3190;DHT22;1606;51.946;10.558;2022-12-18T02:15:24;-4.20;95.30
3190;DHT22;1606;51.946;10.558;2022-12-18T02:17:57;-4.10;95.30
3190;DHT22;1606;51.946;10.558;2022-12-18T02:20:32;-4.20;95.40
3190;DHT22;1606;51.946;10.558;2022-12-18T02:23:17;-4.40;94.80
3190;DHT22;1606;51.946;10.558;2022-12-18T02:26:04;-4.40;95.00
3190;DHT22;1606;51.946;10.558;2022-12-18T02:28:36;-4.50;95.10
3190;DHT22;1606;51.946;10.558;2022-12-18T02:31:11;-4.50;95.20
3190;DHT22;1606;51.946;10.558;2022-12-18T02:33:40;-4.40;95.40
3190;DHT22;1606;51.946;10.558;2022-12-18T02:36:11;-4.40;95.10
3190;DHT22;1606;51.946;10.558;2022-12-18T02:38:39;-4.30;95.00
3190;DHT22;1606;51.946;10.558;2022-12-18T02:41:10;-4.40;94.60
3190;DHT22;1606;51.946;10.558;2022-12-18T02:43:39;-4.60;94.50
3190;DHT22;1606;51.946;10.558;2022-12-18T02:46:27;-4.60;94.60
3190;DHT22;1606;51.946;10.558;2022-12-18T02:49:04;-4.70;94.70
3190;DHT22;1606;51.946;10.558;2022-12-18T02:51:40;-4.60;94.80
3190;DHT22;1606;51.946;10.558;2022-12-18T02:54:16;-4.60;94.80
3190;DHT22;1606;51.946;10.558;2022-12-18T02:56:50;-4.60;94.70
3190;DHT22;1606;51.946;10.558;2022-12-18T02:59:23;-4.70;94.80
3190;DHT22;1606;51.946;10.558;2022-12-18T03:01:57;-4.60;94.90
3190;DHT22;1606;51.946;10.558;2022-12-18T03:04:30;-4.70;94.80
3190;DHT22;1606;51.946;10.558;2022-12-18T03:07:02;-4.60;95.00
3190;DHT22;1606;51.946;10.558;2022-12-18T03:09:34;-4.60;95.00
3190;DHT22;1606;51.946;10.558;2022-12-18T03:12:10;-4.60;94.90
3190;DHT22;1606;51.946;10.558;2022-12-18T03:14:55;-4.50;94.90
3190;DHT22;1606;51.946;10.558;2022-12-18T03:17:26;-4.60;95.00
3190;DHT22;1606;51.946;10.558;2022-12-18T03:19:58;-4.50;94.90
3190;DHT22;1606;51.946;10.558;2022-12-18T03:22:30;-4.40;94.80
3190;DHT22;1606;51.946;10.558;2022-12-18T03:25:00;-4.40;94.50
3190;DHT22;1606;51.946;10.558;2022-12-18T03:27:31;-4.60;94.20
3190;DHT22;1606;51.946;10.558;2022-12-18T03:30:03;-4.60;94.50
3190;DHT22;1606;51.946;10.558;2022-12-18T03:32:38;-4.50;94.60
3190;DHT22;1606;51.946;10.558;2022-12-18T03:35:09;-4.40;94.40
3190;DHT22;1606;51.946;10.558;2022-12-18T03:37:38;-4.40;94.30
3190;DHT22;1606;51.946;10.558;2022-12-18T03:40:07;-4.40;94.00
3190;DHT22;1606;51.946;10.558;2022-12-18T03:42:45;-4.40;93.90
3190;DHT22;1606;51.946;10.558;2022-12-18T03:45:19;-4.50;93.70
3190;DHT22;1606;51.946;10.558;2022-12-18T03:47:59;-4.50;93.70
3190;DHT22;1606;51.946;10.558;2022-12-18T03:50:38;-4.40;93.60
3190;DHT22;1606;51.946;10.558;2022-12-18T03:53:28;-4.60;93.10
3190;DHT22;1606;51.946;10.558;2022-12-18T03:55:57;-5.30;93.50
3190;DHT22;1606;51.946;10.558;2022-12-18T03:58:29;-5.60;94.60
3190;DHT22;1606;51.946;10.558;2022-12-18T04:01:01;-5.50;95.30
3190;DHT22;1606;51.946;10.558;2022-12-18T04:03:31;-5.50;95.70
3190;DHT22;1606;51.946;10.558;2022-12-18T04:06:03;-5.50;95.80
3190;DHT22;1606;51.946;10.558;2022-12-18T04:08:32;-5.60;95.50
3190;DHT22;1606;51.946;10.558;2022-12-18T04:11:01;-5.80;95.60
3190;DHT22;1606;51.946;10.558;2022-12-18T04:13:35;-6.00;96.30
3190;DHT22;1606;51.946;10.558;2022-12-18T04:16:04;-5.80;96.70
3190;DHT22;1606;51.946;10.558;2022-12-18T04:18:32;-5.80;96.70
3190;DHT22;1606;51.946;10.558;2022-12-18T04:21:00;-5.80;96.80
3190;DHT22;1606;51.946;10.558;2022-12-18T04:23:28;-5.80;96.90
3190;DHT22;1606;51.946;10.558;2022-12-18T04:25:56;-5.70;97.00
3190;DHT22;1606;51.946;10.558;2022-12-18T04:28:24;-5.40;97.20
3190;DHT22;1606;51.946;10.558;2022-12-18T04:30:53;-5.30;96.80
3190;DHT22;1606;51.946;10.558;2022-12-18T04:33:21;-5.30;96.60
3190;DHT22;1606;51.946;10.558;2022-12-18T04:35:49;-5.10;96.40
3190;DHT22;1606;51.946;10.558;2022-12-18T04:38:16;-5.20;95.90
3190;DHT22;1606;51.946;10.558;2022-12-18T04:40:44;-5.30;95.80
3190;DHT22;1606;51.946;10.558;2022-12-18T04:43:12;-5.20;95.80
3190;DHT22;1606;51.946;10.558;2022-12-18T04:45:40;-5.10;95.60
3190;DHT22;1606;51.946;10.558;2022-12-18T04:48:09;-5.10;95.30
3190;DHT22;1606;51.946;10.558;2022-12-18T04:50:38;-5.10;95.30
3190;DHT22;1606;51.946;10.558;2022-12-18T04:53:06;-5.10;95.10
3190;DHT22;1606;51.946;10.558;2022-12-18T04:55:35;-5.00;95.10
3190;DHT22;1606;51.946;10.558;2022-12-18T04:58:04;-5.00;94.80
3190;DHT22;1606;51.946;10.558;2022-12-18T05:00:32;-5.20;94.30
3190;DHT22;1606;51.946;10.558;2022-12-18T05:03:01;-5.20;94.40
3190;DHT22;1606;51.946;10.558;2022-12-18T05:05:30;-5.20;94.70
3190;DHT22;1606;51.946;10.558;2022-12-18T05:07:59;-5.20;94.70
3190;DHT22;1606;51.946;10.558;2022-12-18T05:10:27;-5.20;94.80
3190;DHT22;1606;51.946;10.558;2022-12-18T05:13:03;-5.10;94.80
3190;DHT22;1606;51.946;10.558;2022-12-18T05:15:32;-5.20;94.50
3190;DHT22;1606;51.946;10.558;2022-12-18T05:18:01;-5.20;94.30
3190;DHT22;1606;51.946;10.558;2022-12-18T05:20:31;-5.30;94.40
3190;DHT22;1606;51.946;10.558;2022-12-18T05:22:58;-5.20;94.50
3190;DHT22;1606;51.946;10.558;2022-12-18T05:25:27;-5.30;94.30
3190;DHT22;1606;51.946;10.558;2022-12-18T05:27:55;-5.30;94.10
3190;DHT22;1606;51.946;10.558;2022-12-18T05:30:23;-5.40;94.40
3190;DHT22;1606;51.946;10.558;2022-12-18T05:32:51;-5.40;94.40
3190;DHT22;1606;51.946;10.558;2022-12-18T05:35:19;-5.50;94.60
3190;DHT22;1606;51.946;10.558;2022-12-18T05:37:48;-5.40;94.80
3190;DHT22;1606;51.946;10.558;2022-12-18T05:40:16;-5.40;94.30
3190;DHT22;1606;51.946;10.558;2022-12-18T05:42:44;-5.30;94.60
3190;DHT22;1606;51.946;10.558;2022-12-18T05:45:12;-5.20;94.50
3190;DHT22;1606;51.946;10.558;2022-12-18T05:47:41;-5.30;94.00
3190;DHT22;1606;51.946;10.558;2022-12-18T05:50:09;-5.60;93.60
3190;DHT22;1606;51.946;10.558;2022-12-18T05:52:37;-5.60;94.10
3190;DHT22;1606;51.946;10.558;2022-12-18T05:55:07;-6.10;94.00
3190;DHT22;1606;51.946;10.558;2022-12-18T05:57:35;-6.20;94.80
3190;DHT22;1606;51.946;10.558;2022-12-18T06:00:03;-6.10;95.50
3190;DHT22;1606;51.946;10.558;2022-12-18T06:02:31;-6.10;95.80
3190;DHT22;1606;51.946;10.558;2022-12-18T06:04:59;-6.10;95.90
3190;DHT22;1606;51.946;10.558;2022-12-18T06:07:27;-6.00;96.20
3190;DHT22;1606;51.946;10.558;2022-12-18T06:09:55;-5.90;96.20
3190;DHT22;1606;51.946;10.558;2022-12-18T06:12:24;-5.80;96.10
3190;DHT22;1606;51.946;10.558;2022-12-18T06:14:52;-5.60;96.10
3190;DHT22;1606;51.946;10.558;2022-12-18T06:17:20;-5.50;95.80
3190;DHT22;1606;51.946;10.558;2022-12-18T06:19:48;-5.40;95.80
3190;DHT22;1606;51.946;10.558;2022-12-18T06:22:16;-5.40;95.50
3190;DHT22;1606;51.946;10.558;2022-12-18T06:24:44;-5.40;95.30
3190;DHT22;1606;51.946;10.558;2022-12-18T06:27:12;-5.30;94.90
3190;DHT22;1606;51.946;10.558;2022-12-18T06:29:42;-5.30;94.30
3190;DHT22;1606;51.946;10.558;2022-12-18T06:32:10;-5.50;94.50
3190;DHT22;1606;51.946;10.558;2022-12-18T06:34:38;-5.70;93.90
3190;DHT22;1606;51.946;10.558;2022-12-18T06:37:06;-6.00;94.60
3190;DHT22;1606;51.946;10.558;2022-12-18T06:39:34;-6.20;94.90
3190;DHT22;1606;51.946;10.558;2022-12-18T06:42:03;-6.30;95.50
3190;DHT22;1606;51.946;10.558;2022-12-18T06:44:31;-6.00;95.90
3190;DHT22;1606;51.946;10.558;2022-12-18T06:47:00;-5.80;95.90
3190;DHT22;1606;51.946;10.558;2022-12-18T06:49:28;-5.90;95.80
3190;DHT22;1606;51.946;10.558;2022-12-18T06:51:56;-5.80;95.90
3190;DHT22;1606;51.946;10.558;2022-12-18T06:54:24;-6.00;95.50
3190;DHT22;1606;51.946;10.558;2022-12-18T06:56:52;-5.90;95.90
3190;DHT22;1606;51.946;10.558;2022-12-18T06:59:20;-5.90;96.00
3190;DHT22;1606;51.946;10.558;2022-12-18T07:01:47;-5.70;95.90
3190;DHT22;1606;51.946;10.558;2022-12-18T07:04:17;-5.50;95.50
3190;DHT22;1606;51.946;10.558;2022-12-18T07:06:45;-5.40;95.10
3190;DHT22;1606;51.946;10.558;2022-12-18T07:09:13;-5.30;94.80
3190;DHT22;1606;51.946;10.558;2022-12-18T07:11:41;-5.30;94.40
3190;DHT22;1606;51.946;10.558;2022-12-18T07:14:08;-5.40;94.30
3190;DHT22;1606;51.946;10.558;2022-12-18T07:16:36;-5.40;94.30
3190;DHT22;1606;51.946;10.558;2022-12-18T07:19:04;-5.40;94.40
3190;DHT22;1606;51.946;10.558;2022-12-18T07:21:33;-5.40;94.50
3190;DHT22;1606;51.946;10.558;2022-12-18T07:24:01;-5.60;94.60
3190;DHT22;1606;51.946;10.558;2022-12-18T07:26:29;-5.60;94.70
3190;DHT22;1606;51.946;10.558;2022-12-18T07:28:57;-5.60;94.60
3190;DHT22;1606;51.946;10.558;2022-12-18T07:31:26;-5.70;94.60
3190;DHT22;1606;51.946;10.558;2022-12-18T07:33:54;-5.70;94.90
3190;DHT22;1606;51.946;10.558;2022-12-18T07:36:22;-5.70;95.00
3190;DHT22;1606;51.946;10.558;2022-12-18T07:38:51;-5.80;95.00
3190;DHT22;1606;51.946;10.558;2022-12-18T07:41:20;-5.90;95.30
3190;DHT22;1606;51.946;10.558;2022-12-18T07:43:48;-5.90;95.30
3190;DHT22;1606;51.946;10.558;2022-12-18T07:46:16;-6.10;95.40
3190;DHT22;1606;51.946;10.558;2022-12-18T07:48:45;-6.10;95.70
3190;DHT22;1606;51.946;10.558;2022-12-18T07:51:16;-6.00;96.10
3190;DHT22;1606;51.946;10.558;2022-12-18T07:53:44;-5.90;96.00
3190;DHT22;1606;51.946;10.558;2022-12-18T07:56:19;-6.00;95.60
3190;DHT22;1606;51.946;10.558;2022-12-18T07:58:57;-6.10;95.70
3190;DHT22;1606;51.946;10.558;2022-12-18T08:01:25;-6.10;95.90
3190;DHT22;1606;51.946;10.558;2022-12-18T08:03:54;-6.00;96.00
3190;DHT22;1606;51.946;10.558;2022-12-18T08:06:21;-5.90;96.00
3190;DHT22;1606;51.946;10.558;2022-12-18T08:08:51;-5.70;96.00
3190;DHT22;1606;51.946;10.558;2022-12-18T08:11:22;-5.70;96.00
3190;DHT22;1606;51.946;10.558;2022-12-18T08:13:50;-5.50;95.80
3190;DHT22;1606;51.946;10.558;2022-12-18T08:16:18;-5.30;95.40
3190;DHT22;1606;51.946;10.558;2022-12-18T08:18:47;-5.20;95.20
3190;DHT22;1606;51.946;10.558;2022-12-18T08:21:17;-5.30;95.00
3190;DHT22;1606;51.946;10.558;2022-12-18T08:23:47;-5.30;95.00
3190;DHT22;1606;51.946;10.558;2022-12-18T08:26:17;-5.30;95.20
3190;DHT22;1606;51.946;10.558;2022-12-18T08:28:48;-5.20;95.00
3190;DHT22;1606;51.946;10.558;2022-12-18T08:31:16;-5.20;94.70
3190;DHT22;1606;51.946;10.558;2022-12-18T08:33:45;-5.20;94.70
3190;DHT22;1606;51.946;10.558;2022-12-18T08:36:13;-5.10;94.80
3190;DHT22;1606;51.946;10.558;2022-12-18T08:38:41;-5.20;94.70
3190;DHT22;1606;51.946;10.558;2022-12-18T08:41:12;-5.20;95.00
3190;DHT22;1606;51.946;10.558;2022-12-18T08:43:40;-5.20;94.90
3190;DHT22;1606;51.946;10.558;2022-12-18T08:46:32;-5.20;95.10
3190;DHT22;1606;51.946;10.558;2022-12-18T08:49:00;-5.20;95.30
3190;DHT22;1606;51.946;10.558;2022-12-18T08:51:29;-5.30;95.40
3190;DHT22;1606;51.946;10.558;2022-12-18T08:53:57;-5.20;95.70
3190;DHT22;1606;51.946;10.558;2022-12-18T08:56:25;-5.10;95.80
3190;DHT22;1606;51.946;10.558;2022-12-18T08:58:53;-5.10;96.00
3190;DHT22;1606;51.946;10.558;2022-12-18T09:01:22;-5.30;95.80
3190;DHT22;1606;51.946;10.558;2022-12-18T09:03:51;-5.30;96.40
3190;DHT22;1606;51.946;10.558;2022-12-18T09:06:21;-5.20;96.60
3190;DHT22;1606;51.946;10.558;2022-12-18T09:08:49;-5.20;97.00
3190;DHT22;1606;51.946;10.558;2022-12-18T09:11:20;-5.00;97.30
3190;DHT22;1606;51.946;10.558;2022-12-18T09:13:49;-5.10;97.00
3190;DHT22;1606;51.946;10.558;2022-12-18T09:16:17;-5.10;97.40
3190;DHT22;1606;51.946;10.558;2022-12-18T09:18:46;-5.00;97.30
3190;DHT22;1606;51.946;10.558;2022-12-18T09:21:16;-5.00;97.50
3190;DHT22;1606;51.946;10.558;2022-12-18T09:23:49;-4.90;97.70
3190;DHT22;1606;51.946;10.558;2022-12-18T09:26:17;-5.00;97.50
3190;DHT22;1606;51.946;10.558;2022-12-18T09:28:45;-5.10;97.80
3190;DHT22;1606;51.946;10.558;2022-12-18T09:31:14;-4.90;98.70
3190;DHT22;1606;51.946;10.558;2022-12-18T09:33:42;-4.70;99.00
3190;DHT22;1606;51.946;10.558;2022-12-18T09:36:13;-4.60;98.80
3190;DHT22;1606;51.946;10.558;2022-12-18T09:38:44;-4.60;98.70
3190;DHT22;1606;51.946;10.558;2022-12-18T09:44:13;-4.50;99.20
3190;DHT22;1606;51.946;10.558;2022-12-18T09:46:48;-4.40;99.10
3190;DHT22;1606;51.946;10.558;2022-12-18T09:49:20;-4.50;99.00
3190;DHT22;1606;51.946;10.558;2022-12-18T09:51:52;-4.80;99.30
3190;DHT22;1606;51.946;10.558;2022-12-18T09:54:26;-4.90;99.90
3190;DHT22;1606;51.946;10.558;2022-12-18T09:56:56;-4.90;99.90
3190;DHT22;1606;51.946;10.558;2022-12-18T09:59:26;-4.70;99.90
3190;DHT22;1606;51.946;10.558;2022-12-18T10:01:55;-4.70;99.90
3190;DHT22;1606;51.946;10.558;2022-12-18T10:04:25;-4.60;99.90
3190;DHT22;1606;51.946;10.558;2022-12-18T10:07:03;-4.40;99.90
3190;DHT22;1606;51.946;10.558;2022-12-18T10:09:38;-4.00;99.90
3190;DHT22;1606;51.946;10.558;2022-12-18T10:12:11;-3.80;99.90
3190;DHT22;1606;51.946;10.558;2022-12-18T10:14:50;-3.60;99.90
3190;DHT22;1606;51.946;10.558;2022-12-18T10:17:26;-3.70;99.90
3190;DHT22;1606;51.946;10.558;2022-12-18T10:19:59;-3.40;99.90
3190;DHT22;1606;51.946;10.558;2022-12-18T10:22:40;-3.30;99.90
3190;DHT22;1606;51.946;10.558;2022-12-18T10:25:19;-3.10;99.90
3190;DHT22;1606;51.946;10.558;2022-12-18T10:27:52;-2.90;99.90
3190;DHT22;1606;51.946;10.558;2022-12-18T10:30:22;-2.80;99.90
3190;DHT22;1606;51.946;10.558;2022-12-18T10:32:50;-2.80;99.90
3190;DHT22;1606;51.946;10.558;2022-12-18T10:35:20;-2.90;99.90
3190;DHT22;1606;51.946;10.558;2022-12-18T10:38:03;-2.90;99.90
3190;DHT22;1606;51.946;10.558;2022-12-18T10:40:48;-2.80;99.90
3190;DHT22;1606;51.946;10.558;2022-12-18T10:43:20;-2.50;99.90
3190;DHT22;1606;51.946;10.558;2022-12-18T10:46:12;-2.40;99.90
3190;DHT22;1606;51.946;10.558;2022-12-18T10:48:51;-2.20;99.90
3190;DHT22;1606;51.946;10.558;2022-12-18T10:51:22;-2.20;99.90
3190;DHT22;1606;51.946;10.558;2022-12-18T10:53:59;-2.10;99.90
3190;DHT22;1606;51.946;10.558;2022-12-18T10:56:31;-1.90;99.90
3190;DHT22;1606;51.946;10.558;2022-12-18T10:59:01;-1.70;99.90
3190;DHT22;1606;51.946;10.558;2022-12-18T11:01:45;-1.50;99.90
3190;DHT22;1606;51.946;10.558;2022-12-18T11:04:17;-1.30;99.90
3190;DHT22;1606;51.946;10.558;2022-12-18T11:06:57;-1.20;99.90
3190;DHT22;1606;51.946;10.558;2022-12-18T11:09:27;-1.10;99.90
3190;DHT22;1606;51.946;10.558;2022-12-18T11:11:58;-1.00;99.90
3190;DHT22;1606;51.946;10.558;2022-12-18T11:14:28;-0.70;99.90
3190;DHT22;1606;51.946;10.558;2022-12-18T11:16:58;-0.40;99.90
3190;DHT22;1606;51.946;10.558;2022-12-18T11:19:52;-0.20;99.90
3190;DHT22;1606;51.946;10.558;2022-12-18T11:22:23;-0.30;99.90
3190;DHT22;1606;51.946;10.558;2022-12-18T11:24:55;-0.20;99.90
3190;DHT22;1606;51.946;10.558;2022-12-18T11:27:51;-0.10;99.90
3190;DHT22;1606;51.946;10.558;2022-12-18T11:30:24;0.00;99.90
3190;DHT22;1606;51.946;10.558;2022-12-18T11:32:55;-0.10;99.90
3190;DHT22;1606;51.946;10.558;2022-12-18T11:35:36;0.00;99.90
3190;DHT22;1606;51.946;10.558;2022-12-18T11:38:12;0.10;99.90
3190;DHT22;1606;51.946;10.558;2022-12-18T11:40:44;0.30;99.90
3190;DHT22;1606;51.946;10.558;2022-12-18T11:43:17;0.10;99.90
3190;DHT22;1606;51.946;10.558;2022-12-18T11:45:50;0.20;99.90
3190;DHT22;1606;51.946;10.558;2022-12-18T11:48:23;0.30;99.90
3190;DHT22;1606;51.946;10.558;2022-12-18T11:50:53;0.40;99.90
3190;DHT22;1606;51.946;10.558;2022-12-18T11:53:24;0.30;99.90
3190;DHT22;1606;51.946;10.558;2022-12-18T11:56:02;0.30;99.90
3190;DHT22;1606;51.946;10.558;2022-12-18T11:58:45;0.20;99.90
3190;DHT22;1606;51.946;10.558;2022-12-18T12:01:25;0.20;99.90
3190;DHT22;1606;51.946;10.558;2022-12-18T12:04:26;0.20;99.90
3190;DHT22;1606;51.946;10.558;2022-12-18T12:07:05;0.30;99.90
3190;DHT22;1606;51.946;10.558;2022-12-18T12:09:44;0.50;99.90
3190;DHT22;1606;51.946;10.558;2022-12-18T12:12:27;0.70;99.90
3190;DHT22;1606;51.946;10.558;2022-12-18T12:15:24;0.70;99.90
3190;DHT22;1606;51.946;10.558;2022-12-18T12:17:58;0.90;99.90
3190;DHT22;1606;51.946;10.558;2022-12-18T12:20:40;1.00;99.90
3190;DHT22;1606;51.946;10.558;2022-12-18T12:23:15;1.00;99.90
3190;DHT22;1606;51.946;10.558;2022-12-18T12:25:59;1.20;99.90
3190;DHT22;1606;51.946;10.558;2022-12-18T12:29:05;1.30;99.90
3190;DHT22;1606;51.946;10.558;2022-12-18T12:31:51;1.60;99.90
3190;DHT22;1606;51.946;10.558;2022-12-18T12:34:25;1.70;99.90
3190;DHT22;1606;51.946;10.558;2022-12-18T12:37:04;1.60;99.90
3190;DHT22;1606;51.946;10.558;2022-12-18T12:39:38;1.50;99.90
3190;DHT22;1606;51.946;10.558;2022-12-18T12:42:15;1.50;99.90
3190;DHT22;1606;51.946;10.558;2022-12-18T12:45:05;1.30;99.90
3190;DHT22;1606;51.946;10.558;2022-12-18T12:47:40;1.20;99.90
3190;DHT22;1606;51.946;10.558;2022-12-18T12:50:14;1.30;99.90
3190;DHT22;1606;51.946;10.558;2022-12-18T12:52:50;1.20;99.90
3190;DHT22;1606;51.946;10.558;2022-12-18T12:55:31;1.10;99.90
3190;DHT22;1606;51.946;10.558;2022-12-18T12:58:05;1.20;99.90
3190;DHT22;1606;51.946;10.558;2022-12-18T13:00:39;1.30;99.90
3190;DHT22;1606;51.946;10.558;2022-12-18T13:03:18;1.30;99.90
3190;DHT22;1606;51.946;10.558;2022-12-18T13:05:58;1.30;99.90
3190;DHT22;1606;51.946;10.558;2022-12-18T13:08:29;1.00;99.90
3190;DHT22;1606;51.946;10.558;2022-12-18T13:11:02;0.90;99.90
3190;DHT22;1606;51.946;10.558;2022-12-18T13:13:49;0.80;99.90
3190;DHT22;1606;51.946;10.558;2022-12-18T13:16:25;0.80;99.90
3190;DHT22;1606;51.946;10.558;2022-12-18T13:18:58;0.80;99.90
3190;DHT22;1606;51.946;10.558;2022-12-18T13:21:28;0.90;99.90
3190;DHT22;1606;51.946;10.558;2022-12-18T13:23:57;0.60;99.90
3190;DHT22;1606;51.946;10.558;2022-12-18T13:26:42;0.70;99.90
3190;DHT22;1606;51.946;10.558;2022-12-18T13:29:10;0.90;99.90
3190;DHT22;1606;51.946;10.558;2022-12-18T13:32:19;0.70;99.90
3190;DHT22;1606;51.946;10.558;2022-12-18T13:37:58;0.70;99.90
3190;DHT22;1606;51.946;10.558;2022-12-18T13:40:54;0.50;99.90
3190;DHT22;1606;51.946;10.558;2022-12-18T13:43:38;0.40;99.90
3190;DHT22;1606;51.946;10.558;2022-12-18T13:46:19;0.20;99.90
3190;DHT22;1606;51.946;10.558;2022-12-18T13:49:00;0.20;99.90
3190;DHT22;1606;51.946;10.558;2022-12-18T13:51:31;0.30;99.90
3190;DHT22;1606;51.946;10.558;2022-12-18T13:54:02;0.50;99.90
3190;DHT22;1606;51.946;10.558;2022-12-18T13:56:33;0.60;99.90
3190;DHT22;1606;51.946;10.558;2022-12-18T13:59:14;0.60;99.90
3190;DHT22;1606;51.946;10.558;2022-12-18T14:01:50;0.60;99.90
3190;DHT22;1606;51.946;10.558;2022-12-18T14:04:25;0.60;99.90
3190;DHT22;1606;51.946;10.558;2022-12-18T14:06:57;0.50;99.90
3190;DHT22;1606;51.946;10.558;2022-12-18T14:09:28;0.20;99.90
3190;DHT22;1606;51.946;10.558;2022-12-18T14:11:59;0.30;99.90
3190;DHT22;1606;51.946;10.558;2022-12-18T14:14:47;0.40;99.90
3190;DHT22;1606;51.946;10.558;2022-12-18T14:17:19;0.30;99.90
3190;DHT22;1606;51.946;10.558;2022-12-18T14:19:49;0.40;99.90
3190;DHT22;1606;51.946;10.558;2022-12-18T14:22:21;0.50;99.90
3190;DHT22;1606;51.946;10.558;2022-12-18T14:25:10;0.40;99.90
3190;DHT22;1606;51.946;10.558;2022-12-18T14:27:43;0.40;99.90
3190;DHT22;1606;51.946;10.558;2022-12-18T14:30:24;0.30;99.90
3190;DHT22;1606;51.946;10.558;2022-12-18T14:33:03;0.50;99.90
3190;DHT22;1606;51.946;10.558;2022-12-18T14:35:31;0.30;99.90
3190;DHT22;1606;51.946;10.558;2022-12-18T14:38:20;0.20;99.90
3190;DHT22;1606;51.946;10.558;2022-12-18T14:40:53;0.10;99.90
3190;DHT22;1606;51.946;10.558;2022-12-18T14:43:21;0.00;99.90
3190;DHT22;1606;51.946;10.558;2022-12-18T14:45:50;-0.10;99.90
3190;DHT22;1606;51.946;10.558;2022-12-18T14:48:20;-0.20;99.90
3190;DHT22;1606;51.946;10.558;2022-12-18T14:50:58;-0.10;99.90
3190;DHT22;1606;51.946;10.558;2022-12-18T14:53:35;-0.20;99.90
3190;DHT22;1606;51.946;10.558;2022-12-18T14:56:14;-0.40;99.90
3190;DHT22;1606;51.946;10.558;2022-12-18T14:58:48;-0.30;99.90
3190;DHT22;1606;51.946;10.558;2022-12-18T15:01:21;-0.50;99.90
3190;DHT22;1606;51.946;10.558;2022-12-18T15:03:51;-0.40;99.90
3190;DHT22;1606;51.946;10.558;2022-12-18T15:06:30;-0.30;99.90
3190;DHT22;1606;51.946;10.558;2022-12-18T15:09:02;-0.20;99.90
3190;DHT22;1606;51.946;10.558;2022-12-18T15:11:43;-0.10;99.90
3190;DHT22;1606;51.946;10.558;2022-12-18T15:14:34;-0.20;99.90
3190;DHT22;1606;51.946;10.558;2022-12-18T15:17:05;-0.20;99.90
3190;DHT22;1606;51.946;10.558;2022-12-18T15:19:37;-0.30;99.90
3190;DHT22;1606;51.946;10.558;2022-12-18T15:22:18;-0.50;99.90
3190;DHT22;1606;51.946;10.558;2022-12-18T15:24:49;-0.80;99.90
3190;DHT22;1606;51.946;10.558;2022-12-18T15:27:31;-0.70;99.90
3190;DHT22;1606;51.946;10.558;2022-12-18T15:30:22;-0.60;99.90
3190;DHT22;1606;51.946;10.558;2022-12-18T15:32:51;-0.50;99.90
3190;DHT22;1606;51.946;10.558;2022-12-18T15:35:21;-0.50;99.90
3190;DHT22;1606;51.946;10.558;2022-12-18T15:37:50;-0.50;99.90
3190;DHT22;1606;51.946;10.558;2022-12-18T15:40:21;-0.40;99.90
3190;DHT22;1606;51.946;10.558;2022-12-18T15:42:53;-0.30;99.90
3190;DHT22;1606;51.946;10.558;2022-12-18T15:45:41;-0.30;99.90
3190;DHT22;1606;51.946;10.558;2022-12-18T15:48:18;-0.40;99.90
3190;DHT22;1606;51.946;10.558;2022-12-18T15:50:47;-0.40;99.90
3190;DHT22;1606;51.946;10.558;2022-12-18T15:53:14;-0.50;99.90
3190;DHT22;1606;51.946;10.558;2022-12-18T15:55:44;-0.40;99.90
3190;DHT22;1606;51.946;10.558;2022-12-18T15:58:29;-0.30;99.90
3190;DHT22;1606;51.946;10.558;2022-12-18T16:00:58;-0.40;99.90
3190;DHT22;1606;51.946;10.558;2022-12-18T16:03:27;-0.50;99.90
3190;DHT22;1606;51.946;10.558;2022-12-18T16:05:55;-0.60;99.90
3190;DHT22;1606;51.946;10.558;2022-12-18T16:08:25;-0.50;99.90
3190;DHT22;1606;51.946;10.558;2022-12-18T16:10:54;-0.40;99.90
3190;DHT22;1606;51.946;10.558;2022-12-18T16:13:23;-0.40;99.90
3190;DHT22;1606;51.946;10.558;2022-12-18T16:15:50;-0.40;99.90
3190;DHT22;1606;51.946;10.558;2022-12-18T16:18:18;-0.50;99.90
3190;DHT22;1606;51.946;10.558;2022-12-18T16:20:46;-0.60;99.90
3190;DHT22;1606;51.946;10.558;2022-12-18T16:23:14;-0.40;99.90
3190;DHT22;1606;51.946;10.558;2022-12-18T16:25:42;-0.60;99.90
3190;DHT22;1606;51.946;10.558;2022-12-18T16:28:11;-0.90;99.90
3190;DHT22;1606;51.946;10.558;2022-12-18T16:30:39;-0.70;99.90
3190;DHT22;1606;51.946;10.558;2022-12-18T16:33:08;-0.70;99.90